sensor_id;sensor_type;location;lat;lon;timestamp;P1;durP1;ratioP1;P2;durP2;ratioP2
12896;SDS011;6516;35.028;32.372;2023-10-31T00:00:03;28.60;;;8.13;;
12896;SDS011;6516;35.028;32.372;2023-10-31T00:02:37;24.07;;;8.10;;
12896;SDS011;6516;35.028;32.372;2023-10-31T00:05:07;24.17;;;8.32;;
12896;SDS011;6516;35.028;32.372;2023-10-31T00:07:34;18.83;;;8.30;;
12896;SDS011;6516;35.028;32.372;2023-10-31T00:10:03;26.45;;;8.43;;
12896;SDS011;6516;35.028;32.372;2023-10-31T00:12:31;22.52;;;8.52;;
12896;SDS011;6516;35.028;32.372;2023-10-31T00:14:59;21.77;;;7.97;;
12896;SDS011;6516;35.028;32.372;2023-10-31T00:17:27;27.05;;;8.50;;
12896;SDS011;6516;35.028;32.372;2023-10-31T00:19:55;26.65;;;8.55;;
12896;SDS011;6516;35.028;32.372;2023-10-31T00:22:24;28.83;;;8.70;;
12896;SDS011;6516;35.028;32.372;2023-10-31T00:24:52;35.38;;;10.18;;
12896;SDS011;6516;35.028;32.372;2023-10-31T00:27:20;26.63;;;9.10;;
12896;SDS011;6516;35.028;32.372;2023-10-31T00:29:47;33.53;;;9.00;;
12896;SDS011;6516;35.028;32.372;2023-10-31T00:32:15;29.48;;;9.23;;
12896;SDS011;6516;35.028;32.372;2023-10-31T00:34:43;33.22;;;8.70;;
12896;SDS011;6516;35.028;32.372;2023-10-31T00:37:11;22.88;;;8.57;;
12896;SDS011;6516;35.028;32.372;2023-10-31T00:39:40;21.23;;;8.73;;
12896;SDS011;6516;35.028;32.372;2023-10-31T00:42:08;22.02;;;8.93;;
12896;SDS011;6516;35.028;32.372;2023-10-31T00:44:35;29.15;;;9.70;;
12896;SDS011;6516;35.028;32.372;2023-10-31T00:47:03;24.90;;;8.82;;
12896;SDS011;6516;35.028;32.372;2023-10-31T00:49:31;30.80;;;9.57;;
12896;SDS011;6516;35.028;32.372;2023-10-31T00:51:59;28.97;;;9.17;;
12896;SDS011;6516;35.028;32.372;2023-10-31T00:54:27;28.67;;;8.70;;
12896;SDS011;6516;35.028;32.372;2023-10-31T00:56:56;24.23;;;9.10;;
12896;SDS011;6516;35.028;32.372;2023-10-31T00:59:24;24.92;;;9.55;;
12896;SDS011;6516;35.028;32.372;2023-10-31T01:01:52;28.80;;;8.88;;
12896;SDS011;6516;35.028;32.372;2023-10-31T01:04:20;30.00;;;10.07;;
12896;SDS011;6516;35.028;32.372;2023-10-31T01:06:47;29.13;;;10.25;;
12896;SDS011;6516;35.028;32.372;2023-10-31T01:09:15;34.20;;;10.18;;
12896;SDS011;6516;35.028;32.372;2023-10-31T01:11:43;25.65;;;8.80;;
12896;SDS011;6516;35.028;32.372;2023-10-31T01:14:12;21.58;;;9.50;;
12896;SDS011;6516;35.028;32.372;2023-10-31T01:16:40;20.77;;;9.23;;
12896;SDS011;6516;35.028;32.372;2023-10-31T01:19:08;29.90;;;10.50;;
12896;SDS011;6516;35.028;32.372;2023-10-31T01:21:35;29.77;;;10.25;;
12896;SDS011;6516;35.028;32.372;2023-10-31T01:24:03;28.48;;;10.07;;
12896;SDS011;6516;35.028;32.372;2023-10-31T01:26:32;27.25;;;9.95;;
12896;SDS011;6516;35.028;32.372;2023-10-31T01:29:01;32.37;;;11.17;;
12896;SDS011;6516;35.028;32.372;2023-10-31T01:31:30;26.13;;;10.60;;
12896;SDS011;6516;35.028;32.372;2023-10-31T01:34:00;32.55;;;11.70;;
12896;SDS011;6516;35.028;32.372;2023-10-31T01:36:27;34.55;;;11.43;;
12896;SDS011;6516;35.028;32.372;2023-10-31T01:38:55;32.88;;;11.75;;
12896;SDS011;6516;35.028;32.372;2023-10-31T01:41:23;30.97;;;11.27;;
12896;SDS011;6516;35.028;32.372;2023-10-31T01:43:51;32.63;;;11.02;;
12896;SDS011;6516;35.028;32.372;2023-10-31T01:46:18;32.53;;;11.30;;
12896;SDS011;6516;35.028;32.372;2023-10-31T01:48:47;24.73;;;10.63;;
12896;SDS011;6516;35.028;32.372;2023-10-31T01:51:15;28.48;;;10.88;;
12896;SDS011;6516;35.028;32.372;2023-10-31T01:53:43;32.73;;;12.47;;
12896;SDS011;6516;35.028;32.372;2023-10-31T01:56:11;34.33;;;11.57;;
12896;SDS011;6516;35.028;32.372;2023-10-31T01:58:40;25.63;;;11.50;;
12896;SDS011;6516;35.028;32.372;2023-10-31T02:01:08;21.08;;;10.65;;
12896;SDS011;6516;35.028;32.372;2023-10-31T02:03:36;18.08;;;9.75;;
12896;SDS011;6516;35.028;32.372;2023-10-31T02:06:05;31.33;;;11.30;;
12896;SDS011;6516;35.028;32.372;2023-10-31T02:08:34;24.38;;;10.80;;
12896;SDS011;6516;35.028;32.372;2023-10-31T02:11:02;27.45;;;11.43;;
12896;SDS011;6516;35.028;32.372;2023-10-31T02:13:31;33.40;;;12.07;;
12896;SDS011;6516;35.028;32.372;2023-10-31T02:15:58;23.88;;;11.07;;
12896;SDS011;6516;35.028;32.372;2023-10-31T02:18:27;25.37;;;11.40;;
12896;SDS011;6516;35.028;32.372;2023-10-31T02:20:54;29.38;;;12.10;;
12896;SDS011;6516;35.028;32.372;2023-10-31T02:23:24;25.80;;;11.10;;
12896;SDS011;6516;35.028;32.372;2023-10-31T02:25:51;25.40;;;11.02;;
12896;SDS011;6516;35.028;32.372;2023-10-31T02:28:19;23.83;;;11.73;;
12896;SDS011;6516;35.028;32.372;2023-10-31T02:30:47;25.03;;;11.43;;
12896;SDS011;6516;35.028;32.372;2023-10-31T02:33:15;30.45;;;11.93;;
12896;SDS011;6516;35.028;32.372;2023-10-31T02:35:42;29.98;;;12.38;;
12896;SDS011;6516;35.028;32.372;2023-10-31T02:38:10;32.35;;;12.15;;
12896;SDS011;6516;35.028;32.372;2023-10-31T02:40:42;30.63;;;11.82;;
12896;SDS011;6516;35.028;32.372;2023-10-31T02:43:09;28.30;;;12.30;;
12896;SDS011;6516;35.028;32.372;2023-10-31T02:45:37;27.15;;;12.30;;
12896;SDS011;6516;35.028;32.372;2023-10-31T02:48:05;28.50;;;12.18;;
12896;SDS011;6516;35.028;32.372;2023-10-31T02:50:33;34.38;;;12.82;;
12896;SDS011;6516;35.028;32.372;2023-10-31T02:53:00;33.63;;;12.45;;
12896;SDS011;6516;35.028;32.372;2023-10-31T02:55:29;35.83;;;12.80;;
12896;SDS011;6516;35.028;32.372;2023-10-31T02:57:58;26.42;;;11.98;;
12896;SDS011;6516;35.028;32.372;2023-10-31T03:00:26;29.25;;;12.05;;
12896;SDS011;6516;35.028;32.372;2023-10-31T03:02:54;28.67;;;12.07;;
12896;SDS011;6516;35.028;32.372;2023-10-31T03:05:21;26.17;;;11.88;;
12896;SDS011;6516;35.028;32.372;2023-10-31T03:07:49;33.23;;;13.03;;
12896;SDS011;6516;35.028;32.372;2023-10-31T03:10:19;35.08;;;12.45;;
12896;SDS011;6516;35.028;32.372;2023-10-31T03:12:46;29.58;;;12.35;;
12896;SDS011;6516;35.028;32.372;2023-10-31T03:15:16;27.10;;;12.52;;
12896;SDS011;6516;35.028;32.372;2023-10-31T03:17:43;29.98;;;12.18;;
12896;SDS011;6516;35.028;32.372;2023-10-31T03:20:11;26.73;;;12.27;;
12896;SDS011;6516;35.028;32.372;2023-10-31T03:22:39;29.92;;;12.93;;
12896;SDS011;6516;35.028;32.372;2023-10-31T03:25:07;30.30;;;12.63;;
12896;SDS011;6516;35.028;32.372;2023-10-31T03:27:35;31.15;;;12.45;;
12896;SDS011;6516;35.028;32.372;2023-10-31T03:30:03;29.23;;;12.68;;
12896;SDS011;6516;35.028;32.372;2023-10-31T03:32:33;29.60;;;12.60;;
12896;SDS011;6516;35.028;32.372;2023-10-31T03:35:01;33.80;;;12.93;;
12896;SDS011;6516;35.028;32.372;2023-10-31T03:37:28;23.67;;;12.27;;
12896;SDS011;6516;35.028;32.372;2023-10-31T03:39:56;30.52;;;13.55;;
12896;SDS011;6516;35.028;32.372;2023-10-31T03:42:24;33.40;;;12.75;;
12896;SDS011;6516;35.028;32.372;2023-10-31T03:44:52;32.50;;;12.70;;
12896;SDS011;6516;35.028;32.372;2023-10-31T03:47:19;34.58;;;13.27;;
12896;SDS011;6516;35.028;32.372;2023-10-31T03:49:49;32.92;;;13.40;;
12896;SDS011;6516;35.028;32.372;2023-10-31T03:52:16;31.33;;;12.88;;
12896;SDS011;6516;35.028;32.372;2023-10-31T03:54:45;33.08;;;12.88;;
12896;SDS011;6516;35.028;32.372;2023-10-31T03:57:13;26.67;;;13.00;;
12896;SDS011;6516;35.028;32.372;2023-10-31T03:59:41;29.25;;;12.80;;
12896;SDS011;6516;35.028;32.372;2023-10-31T04:02:08;35.13;;;13.50;;
12896;SDS011;6516;35.028;32.372;2023-10-31T04:04:36;29.17;;;12.32;;
12896;SDS011;6516;35.028;32.372;2023-10-31T04:07:05;29.05;;;13.13;;
12896;SDS011;6516;35.028;32.372;2023-10-31T04:09:33;29.43;;;12.00;;
12896;SDS011;6516;35.028;32.372;2023-10-31T04:12:01;25.88;;;12.07;;
12896;SDS011;6516;35.028;32.372;2023-10-31T04:14:29;33.22;;;13.18;;
12896;SDS011;6516;35.028;32.372;2023-10-31T04:16:56;29.40;;;13.18;;
12896;SDS011;6516;35.028;32.372;2023-10-31T04:19:24;31.08;;;12.80;;
12896;SDS011;6516;35.028;32.372;2023-10-31T04:21:52;32.60;;;13.63;;
12896;SDS011;6516;35.028;32.372;2023-10-31T04:24:22;26.90;;;13.02;;
12896;SDS011;6516;35.028;32.372;2023-10-31T04:26:49;24.35;;;12.68;;
12896;SDS011;6516;35.028;32.372;2023-10-31T04:29:17;27.08;;;12.80;;
12896;SDS011;6516;35.028;32.372;2023-10-31T04:31:45;26.67;;;13.35;;
12896;SDS011;6516;35.028;32.372;2023-10-31T04:34:12;24.40;;;13.43;;
12896;SDS011;6516;35.028;32.372;2023-10-31T04:36:40;26.38;;;13.07;;
12896;SDS011;6516;35.028;32.372;2023-10-31T04:39:08;23.02;;;12.88;;
12896;SDS011;6516;35.028;32.372;2023-10-31T04:41:37;28.85;;;13.32;;
12896;SDS011;6516;35.028;32.372;2023-10-31T04:44:05;31.83;;;14.07;;
12896;SDS011;6516;35.028;32.372;2023-10-31T04:46:33;33.43;;;13.87;;
12896;SDS011;6516;35.028;32.372;2023-10-31T04:49:01;29.35;;;13.18;;
12896;SDS011;6516;35.028;32.372;2023-10-31T04:51:32;28.45;;;13.05;;
12896;SDS011;6516;35.028;32.372;2023-10-31T04:54:00;33.70;;;13.25;;
12896;SDS011;6516;35.028;32.372;2023-10-31T04:56:28;28.63;;;13.05;;
12896;SDS011;6516;35.028;32.372;2023-10-31T04:58:58;25.67;;;12.50;;
12896;SDS011;6516;35.028;32.372;2023-10-31T05:01:26;29.85;;;12.85;;
12896;SDS011;6516;35.028;32.372;2023-10-31T05:03:53;25.77;;;12.98;;
12896;SDS011;6516;35.028;32.372;2023-10-31T05:06:22;24.30;;;12.40;;
12896;SDS011;6516;35.028;32.372;2023-10-31T05:08:50;32.65;;;12.98;;
12896;SDS011;6516;35.028;32.372;2023-10-31T05:11:17;24.93;;;11.83;;
12896;SDS011;6516;35.028;32.372;2023-10-31T05:13:45;25.52;;;12.07;;
12896;SDS011;6516;35.028;32.372;2023-10-31T05:16:15;21.05;;;11.95;;
12896;SDS011;6516;35.028;32.372;2023-10-31T05:18:42;21.30;;;10.98;;
12896;SDS011;6516;35.028;32.372;2023-10-31T05:21:11;24.40;;;11.65;;
12896;SDS011;6516;35.028;32.372;2023-10-31T05:23:38;24.00;;;11.67;;
12896;SDS011;6516;35.028;32.372;2023-10-31T05:26:06;26.70;;;11.80;;
12896;SDS011;6516;35.028;32.372;2023-10-31T05:28:34;27.63;;;12.10;;
12896;SDS011;6516;35.028;32.372;2023-10-31T05:31:02;28.83;;;11.35;;
12896;SDS011;6516;35.028;32.372;2023-10-31T05:33:31;22.95;;;11.10;;
12896;SDS011;6516;35.028;32.372;2023-10-31T05:35:59;24.97;;;11.80;;
12896;SDS011;6516;35.028;32.372;2023-10-31T05:38:27;26.05;;;11.52;;
12896;SDS011;6516;35.028;32.372;2023-10-31T05:40:55;23.45;;;10.52;;
12896;SDS011;6516;35.028;32.372;2023-10-31T05:43:23;18.92;;;10.07;;
12896;SDS011;6516;35.028;32.372;2023-10-31T05:45:50;18.33;;;10.25;;
12896;SDS011;6516;35.028;32.372;2023-10-31T05:48:18;21.57;;;9.23;;
12896;SDS011;6516;35.028;32.372;2023-10-31T05:50:47;17.73;;;8.85;;
12896;SDS011;6516;35.028;32.372;2023-10-31T05:53:15;20.60;;;9.32;;
12896;SDS011;6516;35.028;32.372;2023-10-31T05:55:42;19.58;;;8.65;;
12896;SDS011;6516;35.028;32.372;2023-10-31T05:58:10;18.40;;;7.68;;
12896;SDS011;6516;35.028;32.372;2023-10-31T06:00:38;14.23;;;7.43;;
12896;SDS011;6516;35.028;32.372;2023-10-31T06:03:06;19.55;;;7.53;;
12896;SDS011;6516;35.028;32.372;2023-10-31T06:05:34;13.85;;;7.20;;
12896;SDS011;6516;35.028;32.372;2023-10-31T06:08:03;16.25;;;6.95;;
12896;SDS011;6516;35.028;32.372;2023-10-31T06:10:31;16.38;;;7.85;;
12896;SDS011;6516;35.028;32.372;2023-10-31T06:12:59;17.07;;;7.63;;
12896;SDS011;6516;35.028;32.372;2023-10-31T06:15:27;15.93;;;6.60;;
12896;SDS011;6516;35.028;32.372;2023-10-31T06:17:55;19.17;;;7.10;;
12896;SDS011;6516;35.028;32.372;2023-10-31T06:20:23;25.42;;;7.43;;
12896;SDS011;6516;35.028;32.372;2023-10-31T06:22:50;25.60;;;6.97;;
12896;SDS011;6516;35.028;32.372;2023-10-31T06:25:19;15.87;;;6.73;;
12896;SDS011;6516;35.028;32.372;2023-10-31T06:27:47;14.75;;;6.40;;
12896;SDS011;6516;35.028;32.372;2023-10-31T06:30:15;17.40;;;6.97;;
12896;SDS011;6516;35.028;32.372;2023-10-31T06:32:43;15.55;;;7.00;;
12896;SDS011;6516;35.028;32.372;2023-10-31T06:35:10;21.30;;;6.75;;
12896;SDS011;6516;35.028;32.372;2023-10-31T06:37:38;18.03;;;6.47;;
12896;SDS011;6516;35.028;32.372;2023-10-31T06:40:06;23.15;;;6.75;;
12896;SDS011;6516;35.028;32.372;2023-10-31T06:42:36;16.00;;;6.00;;
12896;SDS011;6516;35.028;32.372;2023-10-31T06:45:04;13.77;;;5.95;;
12896;SDS011;6516;35.028;32.372;2023-10-31T06:47:33;14.57;;;6.82;;
12896;SDS011;6516;35.028;32.372;2023-10-31T06:50:01;13.40;;;6.10;;
12896;SDS011;6516;35.028;32.372;2023-10-31T06:52:29;15.45;;;6.40;;
12896;SDS011;6516;35.028;32.372;2023-10-31T06:54:57;12.07;;;5.90;;
12896;SDS011;6516;35.028;32.372;2023-10-31T06:57:25;17.85;;;6.47;;
12896;SDS011;6516;35.028;32.372;2023-10-31T06:59:54;18.05;;;6.22;;
12896;SDS011;6516;35.028;32.372;2023-10-31T07:02:22;20.13;;;6.33;;
12896;SDS011;6516;35.028;32.372;2023-10-31T07:04:51;20.15;;;5.63;;
12896;SDS011;6516;35.028;32.372;2023-10-31T07:07:18;16.17;;;5.93;;
12896;SDS011;6516;35.028;32.372;2023-10-31T07:09:46;13.55;;;6.03;;
12896;SDS011;6516;35.028;32.372;2023-10-31T07:12:14;14.75;;;5.97;;
12896;SDS011;6516;35.028;32.372;2023-10-31T07:14:42;20.93;;;6.10;;
12896;SDS011;6516;35.028;32.372;2023-10-31T07:17:11;19.70;;;6.53;;
12896;SDS011;6516;35.028;32.372;2023-10-31T07:19:39;15.75;;;6.18;;
12896;SDS011;6516;35.028;32.372;2023-10-31T07:22:07;15.77;;;5.47;;
12896;SDS011;6516;35.028;32.372;2023-10-31T07:24:35;15.35;;;6.50;;
12896;SDS011;6516;35.028;32.372;2023-10-31T07:27:03;21.03;;;6.07;;
12896;SDS011;6516;35.028;32.372;2023-10-31T07:29:31;17.90;;;6.30;;
12896;SDS011;6516;35.028;32.372;2023-10-31T07:31:59;13.75;;;5.45;;
12896;SDS011;6516;35.028;32.372;2023-10-31T07:34:28;20.40;;;6.63;;
12896;SDS011;6516;35.028;32.372;2023-10-31T07:36:56;13.15;;;5.80;;
12896;SDS011;6516;35.028;32.372;2023-10-31T07:39:25;16.53;;;5.77;;
12896;SDS011;6516;35.028;32.372;2023-10-31T07:41:53;21.05;;;5.85;;
12896;SDS011;6516;35.028;32.372;2023-10-31T07:44:21;16.58;;;5.65;;
12896;SDS011;6516;35.028;32.372;2023-10-31T07:46:48;17.48;;;6.10;;
12896;SDS011;6516;35.028;32.372;2023-10-31T07:49:16;16.15;;;5.40;;
12896;SDS011;6516;35.028;32.372;2023-10-31T07:51:45;22.80;;;6.27;;
12896;SDS011;6516;35.028;32.372;2023-10-31T07:54:14;16.42;;;6.43;;
12896;SDS011;6516;35.028;32.372;2023-10-31T07:56:42;19.00;;;6.00;;
12896;SDS011;6516;35.028;32.372;2023-10-31T07:59:10;21.65;;;5.93;;
12896;SDS011;6516;35.028;32.372;2023-10-31T08:01:38;15.52;;;6.07;;
12896;SDS011;6516;35.028;32.372;2023-10-31T08:04:06;15.90;;;5.60;;
12896;SDS011;6516;35.028;32.372;2023-10-31T08:06:33;15.63;;;5.15;;
12896;SDS011;6516;35.028;32.372;2023-10-31T08:09:03;18.17;;;5.97;;
12896;SDS011;6516;35.028;32.372;2023-10-31T08:11:31;14.15;;;5.50;;
12896;SDS011;6516;35.028;32.372;2023-10-31T08:14:00;15.82;;;5.53;;
12896;SDS011;6516;35.028;32.372;2023-10-31T08:16:28;15.47;;;5.67;;
12896;SDS011;6516;35.028;32.372;2023-10-31T08:18:56;16.40;;;5.90;;
12896;SDS011;6516;35.028;32.372;2023-10-31T08:21:24;16.73;;;5.82;;
12896;SDS011;6516;35.028;32.372;2023-10-31T08:23:53;14.48;;;6.10;;
12896;SDS011;6516;35.028;32.372;2023-10-31T08:26:22;16.20;;;5.40;;
12896;SDS011;6516;35.028;32.372;2023-10-31T08:28:50;15.40;;;5.30;;
12896;SDS011;6516;35.028;32.372;2023-10-31T08:31:18;16.50;;;5.75;;
12896;SDS011;6516;35.028;32.372;2023-10-31T08:33:46;16.77;;;5.55;;
12896;SDS011;6516;35.028;32.372;2023-10-31T08:36:14;17.70;;;5.95;;
12896;SDS011;6516;35.028;32.372;2023-10-31T08:38:41;19.95;;;5.95;;
12896;SDS011;6516;35.028;32.372;2023-10-31T08:41:09;14.43;;;5.83;;
12896;SDS011;6516;35.028;32.372;2023-10-31T08:43:38;15.18;;;5.10;;
12896;SDS011;6516;35.028;32.372;2023-10-31T08:46:06;21.23;;;6.57;;
12896;SDS011;6516;35.028;32.372;2023-10-31T08:48:34;17.63;;;6.07;;
12896;SDS011;6516;35.028;32.372;2023-10-31T08:51:02;17.98;;;6.00;;
12896;SDS011;6516;35.028;32.372;2023-10-31T08:53:31;19.07;;;6.47;;
12896;SDS011;6516;35.028;32.372;2023-10-31T08:55:58;17.52;;;6.22;;
12896;SDS011;6516;35.028;32.372;2023-10-31T08:58:27;17.17;;;6.18;;
12896;SDS011;6516;35.028;32.372;2023-10-31T09:00:57;16.55;;;5.93;;
12896;SDS011;6516;35.028;32.372;2023-10-31T09:03:25;19.30;;;6.55;;
12896;SDS011;6516;35.028;32.372;2023-10-31T09:05:53;18.33;;;6.27;;
12896;SDS011;6516;35.028;32.372;2023-10-31T09:08:20;16.00;;;6.15;;
12896;SDS011;6516;35.028;32.372;2023-10-31T09:10:48;14.75;;;5.82;;
12896;SDS011;6516;35.028;32.372;2023-10-31T09:13:16;21.15;;;6.93;;
12896;SDS011;6516;35.028;32.372;2023-10-31T09:15:44;15.98;;;6.60;;
12896;SDS011;6516;35.028;32.372;2023-10-31T09:18:13;17.70;;;5.90;;
12896;SDS011;6516;35.028;32.372;2023-10-31T09:20:41;18.83;;;6.60;;
12896;SDS011;6516;35.028;32.372;2023-10-31T09:23:09;22.33;;;6.90;;
12896;SDS011;6516;35.028;32.372;2023-10-31T09:25:37;17.05;;;6.45;;
12896;SDS011;6516;35.028;32.372;2023-10-31T09:28:04;15.30;;;5.90;;
12896;SDS011;6516;35.028;32.372;2023-10-31T09:30:32;19.23;;;6.10;;
12896;SDS011;6516;35.028;32.372;2023-10-31T09:33:00;19.77;;;6.15;;
12896;SDS011;6516;35.028;32.372;2023-10-31T09:35:29;21.38;;;6.63;;
12896;SDS011;6516;35.028;32.372;2023-10-31T09:37:57;22.73;;;6.38;;
12896;SDS011;6516;35.028;32.372;2023-10-31T09:40:25;16.67;;;6.65;;
12896;SDS011;6516;35.028;32.372;2023-10-31T09:42:53;18.67;;;6.23;;
12896;SDS011;6516;35.028;32.372;2023-10-31T09:45:20;18.73;;;6.38;;
12896;SDS011;6516;35.028;32.372;2023-10-31T09:47:49;24.08;;;6.40;;
12896;SDS011;6516;35.028;32.372;2023-10-31T09:50:16;16.05;;;5.88;;
12896;SDS011;6516;35.028;32.372;2023-10-31T09:52:46;22.15;;;6.60;;
12896;SDS011;6516;35.028;32.372;2023-10-31T09:55:14;16.37;;;5.73;;
12896;SDS011;6516;35.028;32.372;2023-10-31T09:57:42;19.95;;;5.88;;
12896;SDS011;6516;35.028;32.372;2023-10-31T10:00:10;15.38;;;6.07;;
12896;SDS011;6516;35.028;32.372;2023-10-31T10:02:39;21.45;;;6.93;;
12896;SDS011;6516;35.028;32.372;2023-10-31T10:05:08;17.38;;;5.80;;
12896;SDS011;6516;35.028;32.372;2023-10-31T10:07:37;20.70;;;6.03;;
12896;SDS011;6516;35.028;32.372;2023-10-31T10:10:11;20.88;;;5.40;;
12896;SDS011;6516;35.028;32.372;2023-10-31T10:12:41;17.13;;;5.78;;
12896;SDS011;6516;35.028;32.372;2023-10-31T10:15:09;18.27;;;6.00;;
12896;SDS011;6516;35.028;32.372;2023-10-31T10:17:38;20.23;;;6.32;;
12896;SDS011;6516;35.028;32.372;2023-10-31T10:20:06;21.97;;;6.10;;
12896;SDS011;6516;35.028;32.372;2023-10-31T10:22:36;16.13;;;6.03;;
12896;SDS011;6516;35.028;32.372;2023-10-31T10:25:05;19.10;;;6.40;;
12896;SDS011;6516;35.028;32.372;2023-10-31T10:27:35;26.90;;;6.40;;
12896;SDS011;6516;35.028;32.372;2023-10-31T10:30:08;20.20;;;6.70;;
12896;SDS011;6516;35.028;32.372;2023-10-31T10:32:37;18.60;;;6.10;;
12896;SDS011;6516;35.028;32.372;2023-10-31T10:35:06;18.48;;;6.18;;
12896;SDS011;6516;35.028;32.372;2023-10-31T10:37:35;18.48;;;6.57;;
12896;SDS011;6516;35.028;32.372;2023-10-31T10:40:06;17.90;;;6.10;;
12896;SDS011;6516;35.028;32.372;2023-10-31T10:42:44;22.40;;;6.93;;
12896;SDS011;6516;35.028;32.372;2023-10-31T10:45:14;19.23;;;6.20;;
12896;SDS011;6516;35.028;32.372;2023-10-31T10:47:44;20.08;;;6.40;;
12896;SDS011;6516;35.028;32.372;2023-10-31T10:50:13;19.92;;;6.55;;
12896;SDS011;6516;35.028;32.372;2023-10-31T10:52:43;20.58;;;6.53;;
12896;SDS011;6516;35.028;32.372;2023-10-31T10:55:18;25.58;;;7.55;;
12896;SDS011;6516;35.028;32.372;2023-10-31T10:57:52;21.57;;;7.33;;
12896;SDS011;6516;35.028;32.372;2023-10-31T11:00:32;18.92;;;7.03;;
12896;SDS011;6516;35.028;32.372;2023-10-31T11:03:00;18.90;;;7.03;;
12896;SDS011;6516;35.028;32.372;2023-10-31T11:05:29;19.10;;;6.78;;
12896;SDS011;6516;35.028;32.372;2023-10-31T11:07:58;17.85;;;6.75;;
12896;SDS011;6516;35.028;32.372;2023-10-31T11:10:28;17.90;;;6.53;;
12896;SDS011;6516;35.028;32.372;2023-10-31T11:12:58;23.80;;;7.10;;
12896;SDS011;6516;35.028;32.372;2023-10-31T11:15:26;21.00;;;7.22;;
12896;SDS011;6516;35.028;32.372;2023-10-31T11:17:54;21.13;;;7.70;;
12896;SDS011;6516;35.028;32.372;2023-10-31T11:20:23;17.65;;;6.95;;
12896;SDS011;6516;35.028;32.372;2023-10-31T11:22:54;23.00;;;7.10;;
12896;SDS011;6516;35.028;32.372;2023-10-31T11:25:23;19.25;;;6.72;;
12896;SDS011;6516;35.028;32.372;2023-10-31T11:27:51;18.90;;;7.32;;
12896;SDS011;6516;35.028;32.372;2023-10-31T11:30:21;19.05;;;6.88;;
12896;SDS011;6516;35.028;32.372;2023-10-31T11:32:54;17.50;;;7.07;;
12896;SDS011;6516;35.028;32.372;2023-10-31T11:35:22;17.90;;;7.37;;
12896;SDS011;6516;35.028;32.372;2023-10-31T11:38:00;18.98;;;7.40;;
12896;SDS011;6516;35.028;32.372;2023-10-31T11:40:34;18.75;;;7.35;;
12896;SDS011;6516;35.028;32.372;2023-10-31T11:43:04;20.98;;;7.15;;
12896;SDS011;6516;35.028;32.372;2023-10-31T11:45:36;17.00;;;6.50;;
12896;SDS011;6516;35.028;32.372;2023-10-31T11:48:10;22.37;;;7.37;;
12896;SDS011;6516;35.028;32.372;2023-10-31T11:50:38;18.65;;;7.10;;
12896;SDS011;6516;35.028;32.372;2023-10-31T11:53:07;22.90;;;7.40;;
12896;SDS011;6516;35.028;32.372;2023-10-31T11:55:39;21.67;;;7.30;;
12896;SDS011;6516;35.028;32.372;2023-10-31T11:58:15;19.00;;;7.38;;
12896;SDS011;6516;35.028;32.372;2023-10-31T12:00:46;19.67;;;7.50;;
12896;SDS011;6516;35.028;32.372;2023-10-31T12:03:16;20.13;;;8.25;;
12896;SDS011;6516;35.028;32.372;2023-10-31T12:05:52;18.48;;;7.53;;
12896;SDS011;6516;35.028;32.372;2023-10-31T12:08:27;21.30;;;7.45;;
12896;SDS011;6516;35.028;32.372;2023-10-31T12:11:03;21.40;;;7.53;;
12896;SDS011;6516;35.028;32.372;2023-10-31T12:13:36;18.00;;;7.77;;
12896;SDS011;6516;35.028;32.372;2023-10-31T12:16:07;15.95;;;7.32;;
12896;SDS011;6516;35.028;32.372;2023-10-31T12:18:37;21.20;;;8.23;;
12896;SDS011;6516;35.028;32.372;2023-10-31T12:21:05;20.60;;;8.05;;
12896;SDS011;6516;35.028;32.372;2023-10-31T12:23:36;20.83;;;7.57;;
12896;SDS011;6516;35.028;32.372;2023-10-31T12:26:03;18.93;;;8.63;;
12896;SDS011;6516;35.028;32.372;2023-10-31T12:28:31;19.30;;;8.45;;
12896;SDS011;6516;35.028;32.372;2023-10-31T12:30:59;14.82;;;7.65;;
12896;SDS011;6516;35.028;32.372;2023-10-31T12:33:31;20.38;;;8.40;;
12896;SDS011;6516;35.028;32.372;2023-10-31T12:35:59;19.45;;;8.13;;
12896;SDS011;6516;35.028;32.372;2023-10-31T12:38:27;23.83;;;8.00;;
12896;SDS011;6516;35.028;32.372;2023-10-31T12:40:56;22.58;;;7.65;;
12896;SDS011;6516;35.028;32.372;2023-10-31T12:43:25;18.48;;;8.15;;
12896;SDS011;6516;35.028;32.372;2023-10-31T12:45:54;15.88;;;7.05;;
12896;SDS011;6516;35.028;32.372;2023-10-31T12:48:23;21.52;;;8.30;;
12896;SDS011;6516;35.028;32.372;2023-10-31T12:51:06;16.60;;;7.87;;
12896;SDS011;6516;35.028;32.372;2023-10-31T12:53:35;17.58;;;7.47;;
12896;SDS011;6516;35.028;32.372;2023-10-31T12:56:03;20.92;;;8.07;;
12896;SDS011;6516;35.028;32.372;2023-10-31T12:58:31;17.92;;;8.10;;
12896;SDS011;6516;35.028;32.372;2023-10-31T13:00:59;17.00;;;7.43;;
12896;SDS011;6516;35.028;32.372;2023-10-31T13:03:27;17.10;;;7.80;;
12896;SDS011;6516;35.028;32.372;2023-10-31T13:05:55;21.58;;;8.10;;
12896;SDS011;6516;35.028;32.372;2023-10-31T13:08:24;21.23;;;8.38;;
12896;SDS011;6516;35.028;32.372;2023-10-31T13:10:52;15.88;;;7.95;;
12896;SDS011;6516;35.028;32.372;2023-10-31T13:13:19;15.60;;;8.10;;
12896;SDS011;6516;35.028;32.372;2023-10-31T13:15:47;17.57;;;7.90;;
12896;SDS011;6516;35.028;32.372;2023-10-31T13:18:15;18.38;;;8.13;;
12896;SDS011;6516;35.028;32.372;2023-10-31T13:20:43;24.38;;;8.38;;
12896;SDS011;6516;35.028;32.372;2023-10-31T13:23:11;17.65;;;8.48;;
12896;SDS011;6516;35.028;32.372;2023-10-31T13:25:40;21.90;;;8.40;;
12896;SDS011;6516;35.028;32.372;2023-10-31T13:28:07;19.63;;;8.27;;
12896;SDS011;6516;35.028;32.372;2023-10-31T13:30:37;16.42;;;8.43;;
12896;SDS011;6516;35.028;32.372;2023-10-31T13:33:06;19.30;;;8.70;;
12896;SDS011;6516;35.028;32.372;2023-10-31T13:35:34;21.63;;;8.20;;
12896;SDS011;6516;35.028;32.372;2023-10-31T13:38:02;19.85;;;8.60;;
12896;SDS011;6516;35.028;32.372;2023-10-31T13:40:30;20.33;;;8.47;;
12896;SDS011;6516;35.028;32.372;2023-10-31T13:42:59;19.52;;;8.25;;
12896;SDS011;6516;35.028;32.372;2023-10-31T13:45:26;20.00;;;8.38;;
12896;SDS011;6516;35.028;32.372;2023-10-31T13:47:54;20.48;;;8.13;;
12896;SDS011;6516;35.028;32.372;2023-10-31T13:50:22;19.17;;;8.65;;
12896;SDS011;6516;35.028;32.372;2023-10-31T13:52:49;15.93;;;7.83;;
12896;SDS011;6516;35.028;32.372;2023-10-31T13:55:18;20.80;;;8.95;;
12896;SDS011;6516;35.028;32.372;2023-10-31T13:57:45;23.77;;;8.70;;
12896;SDS011;6516;35.028;32.372;2023-10-31T14:00:15;24.17;;;8.57;;
12896;SDS011;6516;35.028;32.372;2023-10-31T14:02:43;21.45;;;8.68;;
12896;SDS011;6516;35.028;32.372;2023-10-31T14:05:11;18.43;;;8.47;;
12896;SDS011;6516;35.028;32.372;2023-10-31T14:07:39;19.05;;;8.82;;
12896;SDS011;6516;35.028;32.372;2023-10-31T14:10:07;21.73;;;9.45;;
12896;SDS011;6516;35.028;32.372;2023-10-31T14:12:35;17.70;;;8.85;;
12896;SDS011;6516;35.028;32.372;2023-10-31T14:15:03;18.88;;;8.82;;
12896;SDS011;6516;35.028;32.372;2023-10-31T14:17:34;17.87;;;9.10;;
12896;SDS011;6516;35.028;32.372;2023-10-31T14:20:01;23.45;;;9.63;;
12896;SDS011;6516;35.028;32.372;2023-10-31T14:22:30;15.35;;;8.90;;
12896;SDS011;6516;35.028;32.372;2023-10-31T14:24:58;20.08;;;9.20;;
12896;SDS011;6516;35.028;32.372;2023-10-31T14:27:29;17.83;;;9.50;;
12896;SDS011;6516;35.028;32.372;2023-10-31T14:29:57;18.03;;;9.60;;
12896;SDS011;6516;35.028;32.372;2023-10-31T14:32:25;16.80;;;8.93;;
12896;SDS011;6516;35.028;32.372;2023-10-31T14:34:54;15.75;;;9.18;;
12896;SDS011;6516;35.028;32.372;2023-10-31T14:37:22;16.48;;;9.07;;